Atlantic City International Airport
KACY : rendu visible

Aérodrome :











RETROUVEZ-NOUS SUR...

 
LOGIN :

S'inscrire | Disclaimer

   EN    FR    IT 

 









Légende :    VFR   VFR Marginal   IFR   IFR Intensif   IFR Très Intensif
Visi : 
Plafond : 
>= 8 km
>= 3000ft
5 à 8 km
1000 à 3000 ft
1500m à 5 km
500 à 1000 ft
800 à 1500m
200 à 500 ft
< 800m
< 200 ft
Symboles :   Orages  Brouillard  Fortes neiges  Fortes précipitations  Vent > 20 kt






- Altitude de l'aérodrome : 75 ft
- Code IATA : ACY


KACY - Atlantic City International

DERNIER METAR :
  • 061754Z 21017G26KT 10SM 11/02 A3006

METARs EXPIRÉS :
  • 061654Z 20012G21KT 10SM CLR 09/00 A3011
  • 061554Z 20014G18KT 10SM CLR 08/M01 A3014 RMK AO2 SLP206 T00831006

TAF KACY
Valide du 06 à 18h jusqu'au 07 à 18h UTC


061720Z 0618/0718 22011G20KT P6SM BKN100
FM070000 25009KT P6SM BKN080
FM070300 29009KT P6SM BKN060
FM070600 33007KT P6SM SCT100



MET'MAP, la Météo Aéronautique d'un coup d'oeil ! - Copyright ORBIFLY Décembre 2007 - Disclaimer

ORBIFLY MET'MAP TEAM :

Programmation & Développement : Alexandra Zaïnal
Sur une idée originale de : Baudouin d'Aumeries
Assistance à la programmation : Marc-Olivier Méhu
Soutien technique & logistique : Manuel Goepfert

Contact : metmap@orbifly.com




SOURCES & CREDITS :

   NOAA       Earth
Advisory